sensor_id;sensor_type;location;lat;lon;timestamp;temperature;humidity
4840;DHT22;2434;48.486;7.964;2023-05-02T00:00:10;12.50;68.80
4840;DHT22;2434;48.486;7.964;2023-05-02T00:02:39;12.60;68.10
4840;DHT22;2434;48.486;7.964;2023-05-02T00:05:09;12.60;68.20
4840;DHT22;2434;48.486;7.964;2023-05-02T00:07:38;12.50;67.90
4840;DHT22;2434;48.486;7.964;2023-05-02T00:10:07;12.50;67.80
4840;DHT22;2434;48.486;7.964;2023-05-02T00:12:35;12.40;67.90
4840;DHT22;2434;48.486;7.964;2023-05-02T00:15:05;12.30;68.30
4840;DHT22;2434;48.486;7.964;2023-05-02T00:17:33;12.30;68.60
4840;DHT22;2434;48.486;7.964;2023-05-02T00:20:02;12.20;69.10
4840;DHT22;2434;48.486;7.964;2023-05-02T00:22:32;12.20;69.00
4840;DHT22;2434;48.486;7.964;2023-05-02T00:25:00;12.10;69.40
4840;DHT22;2434;48.486;7.964;2023-05-02T00:27:29;12.00;69.40
4840;DHT22;2434;48.486;7.964;2023-05-02T00:29:58;12.00;69.80
4840;DHT22;2434;48.486;7.964;2023-05-02T00:32:27;12.00;70.00
4840;DHT22;2434;48.486;7.964;2023-05-02T00:34:55;12.00;70.00
4840;DHT22;2434;48.486;7.964;2023-05-02T00:37:25;12.10;69.60
4840;DHT22;2434;48.486;7.964;2023-05-02T00:39:57;12.10;69.30
4840;DHT22;2434;48.486;7.964;2023-05-02T00:42:25;12.00;69.20
4840;DHT22;2434;48.486;7.964;2023-05-02T00:44:55;11.90;70.60
4840;DHT22;2434;48.486;7.964;2023-05-02T00:47:23;11.80;70.20
4840;DHT22;2434;48.486;7.964;2023-05-02T00:49:51;11.80;70.80
4840;DHT22;2434;48.486;7.964;2023-05-02T00:52:20;11.80;71.10
4840;DHT22;2434;48.486;7.964;2023-05-02T00:54:48;11.70;71.50
4840;DHT22;2434;48.486;7.964;2023-05-02T00:57:18;11.70;71.70
4840;DHT22;2434;48.486;7.964;2023-05-02T00:59:46;11.80;71.60
4840;DHT22;2434;48.486;7.964;2023-05-02T01:02:25;11.80;71.90
4840;DHT22;2434;48.486;7.964;2023-05-02T01:05:01;11.80;71.50
4840;DHT22;2434;48.486;7.964;2023-05-02T01:07:50;11.70;72.10
4840;DHT22;2434;48.486;7.964;2023-05-02T01:10:29;11.70;72.30
4840;DHT22;2434;48.486;7.964;2023-05-02T01:13:07;11.70;73.10
4840;DHT22;2434;48.486;7.964;2023-05-02T01:15:37;11.70;73.00
4840;DHT22;2434;48.486;7.964;2023-05-02T01:18:08;11.70;73.60
4840;DHT22;2434;48.486;7.964;2023-05-02T01:20:40;11.80;73.80
4840;DHT22;2434;48.486;7.964;2023-05-02T01:23:15;11.70;75.30
4840;DHT22;2434;48.486;7.964;2023-05-02T01:25:55;11.80;74.20
4840;DHT22;2434;48.486;7.964;2023-05-02T01:31:10;11.90;75.20
4840;DHT22;2434;48.486;7.964;2023-05-02T01:33:39;11.60;76.60
4840;DHT22;2434;48.486;7.964;2023-05-02T01:36:08;11.80;75.80
4840;DHT22;2434;48.486;7.964;2023-05-02T01:38:38;11.90;76.10
4840;DHT22;2434;48.486;7.964;2023-05-02T01:41:07;12.00;75.30
4840;DHT22;2434;48.486;7.964;2023-05-02T01:43:37;12.10;75.30
4840;DHT22;2434;48.486;7.964;2023-05-02T01:46:09;12.10;73.50
4840;DHT22;2434;48.486;7.964;2023-05-02T01:48:38;12.20;73.40
4840;DHT22;2434;48.486;7.964;2023-05-02T01:51:08;12.10;73.10
4840;DHT22;2434;48.486;7.964;2023-05-02T01:53:38;12.20;72.80
4840;DHT22;2434;48.486;7.964;2023-05-02T01:56:06;12.10;73.20
4840;DHT22;2434;48.486;7.964;2023-05-02T01:58:35;12.10;72.50
4840;DHT22;2434;48.486;7.964;2023-05-02T02:01:05;12.10;72.30
4840;DHT22;2434;48.486;7.964;2023-05-02T02:03:35;12.00;72.40
4840;DHT22;2434;48.486;7.964;2023-05-02T02:06:04;12.00;72.70
4840;DHT22;2434;48.486;7.964;2023-05-02T02:08:34;12.00;73.50
4840;DHT22;2434;48.486;7.964;2023-05-02T02:11:08;12.00;72.90
4840;DHT22;2434;48.486;7.964;2023-05-02T02:13:40;12.00;72.70
4840;DHT22;2434;48.486;7.964;2023-05-02T02:16:12;12.10;72.90
4840;DHT22;2434;48.486;7.964;2023-05-02T02:18:43;12.00;72.60
4840;DHT22;2434;48.486;7.964;2023-05-02T02:21:17;12.10;73.40
4840;DHT22;2434;48.486;7.964;2023-05-02T02:23:47;12.10;73.20
4840;DHT22;2434;48.486;7.964;2023-05-02T02:26:17;12.10;74.10
4840;DHT22;2434;48.486;7.964;2023-05-02T02:28:47;12.10;73.50
4840;DHT22;2434;48.486;7.964;2023-05-02T02:31:16;12.10;73.50
4840;DHT22;2434;48.486;7.964;2023-05-02T02:33:45;12.10;74.30
4840;DHT22;2434;48.486;7.964;2023-05-02T02:36:19;12.00;75.60
4840;DHT22;2434;48.486;7.964;2023-05-02T02:38:53;12.10;75.10
4840;DHT22;2434;48.486;7.964;2023-05-02T02:41:27;12.10;75.60
4840;DHT22;2434;48.486;7.964;2023-05-02T02:44:04;12.00;74.70
4840;DHT22;2434;48.486;7.964;2023-05-02T02:46:47;12.10;75.70
4840;DHT22;2434;48.486;7.964;2023-05-02T02:49:37;12.10;76.60
4840;DHT22;2434;48.486;7.964;2023-05-02T02:52:17;12.00;75.20
4840;DHT22;2434;48.486;7.964;2023-05-02T02:54:51;12.10;75.00
4840;DHT22;2434;48.486;7.964;2023-05-02T02:57:27;12.10;75.30
4840;DHT22;2434;48.486;7.964;2023-05-02T03:00:01;12.10;75.30
4840;DHT22;2434;48.486;7.964;2023-05-02T03:02:32;12.10;75.20
4840;DHT22;2434;48.486;7.964;2023-05-02T03:05:04;12.20;75.10
4840;DHT22;2434;48.486;7.964;2023-05-02T03:07:32;12.20;75.00
4840;DHT22;2434;48.486;7.964;2023-05-02T03:10:02;12.20;74.70
4840;DHT22;2434;48.486;7.964;2023-05-02T03:12:33;12.20;74.70
4840;DHT22;2434;48.486;7.964;2023-05-02T03:15:14;12.20;74.50
4840;DHT22;2434;48.486;7.964;2023-05-02T03:17:46;12.20;75.10
4840;DHT22;2434;48.486;7.964;2023-05-02T03:20:16;12.20;74.10
4840;DHT22;2434;48.486;7.964;2023-05-02T03:22:44;12.20;74.70
4840;DHT22;2434;48.486;7.964;2023-05-02T03:25:12;12.20;73.90
4840;DHT22;2434;48.486;7.964;2023-05-02T03:27:45;12.20;73.70
4840;DHT22;2434;48.486;7.964;2023-05-02T03:30:14;12.20;73.80
4840;DHT22;2434;48.486;7.964;2023-05-02T03:32:42;12.10;73.30
4840;DHT22;2434;48.486;7.964;2023-05-02T03:35:11;12.10;73.80
4840;DHT22;2434;48.486;7.964;2023-05-02T03:37:44;12.10;74.30
4840;DHT22;2434;48.486;7.964;2023-05-02T03:40:12;12.10;73.80
4840;DHT22;2434;48.486;7.964;2023-05-02T03:42:43;11.90;74.70
4840;DHT22;2434;48.486;7.964;2023-05-02T03:45:22;11.80;76.10
4840;DHT22;2434;48.486;7.964;2023-05-02T03:47:51;11.80;75.10
4840;DHT22;2434;48.486;7.964;2023-05-02T03:50:20;11.80;74.80
4840;DHT22;2434;48.486;7.964;2023-05-02T03:52:51;11.70;75.10
4840;DHT22;2434;48.486;7.964;2023-05-02T03:55:28;11.70;75.20
4840;DHT22;2434;48.486;7.964;2023-05-02T03:57:56;11.70;74.60
4840;DHT22;2434;48.486;7.964;2023-05-02T04:00:25;11.80;73.80
4840;DHT22;2434;48.486;7.964;2023-05-02T04:03:00;11.70;73.30
4840;DHT22;2434;48.486;7.964;2023-05-02T04:05:31;11.70;73.50
4840;DHT22;2434;48.486;7.964;2023-05-02T04:08:01;11.60;74.00
4840;DHT22;2434;48.486;7.964;2023-05-02T04:10:30;11.50;73.60
4840;DHT22;2434;48.486;7.964;2023-05-02T04:13:01;11.50;75.10
4840;DHT22;2434;48.486;7.964;2023-05-02T04:15:32;11.40;76.00
4840;DHT22;2434;48.486;7.964;2023-05-02T04:18:00;11.20;76.40
4840;DHT22;2434;48.486;7.964;2023-05-02T04:20:29;11.20;77.60
4840;DHT22;2434;48.486;7.964;2023-05-02T04:22:57;11.10;76.90
4840;DHT22;2434;48.486;7.964;2023-05-02T04:25:28;11.10;77.00
4840;DHT22;2434;48.486;7.964;2023-05-02T04:28:00;11.10;77.60
4840;DHT22;2434;48.486;7.964;2023-05-02T04:30:30;11.10;76.70
4840;DHT22;2434;48.486;7.964;2023-05-02T04:33:04;11.10;77.20
4840;DHT22;2434;48.486;7.964;2023-05-02T04:35:38;11.20;76.20
4840;DHT22;2434;48.486;7.964;2023-05-02T04:38:08;11.20;75.60
4840;DHT22;2434;48.486;7.964;2023-05-02T04:40:39;11.30;75.50
4840;DHT22;2434;48.486;7.964;2023-05-02T04:43:08;11.30;75.10
4840;DHT22;2434;48.486;7.964;2023-05-02T04:45:44;11.30;75.50
4840;DHT22;2434;48.486;7.964;2023-05-02T04:48:20;11.40;75.10
4840;DHT22;2434;48.486;7.964;2023-05-02T04:50:48;11.40;75.00
4840;DHT22;2434;48.486;7.964;2023-05-02T04:53:16;11.40;74.50
4840;DHT22;2434;48.486;7.964;2023-05-02T04:55:46;11.30;74.90
4840;DHT22;2434;48.486;7.964;2023-05-02T04:58:14;11.40;75.30
4840;DHT22;2434;48.486;7.964;2023-05-02T05:00:47;11.50;73.80
4840;DHT22;2434;48.486;7.964;2023-05-02T05:03:15;11.40;73.20
4840;DHT22;2434;48.486;7.964;2023-05-02T05:05:43;11.40;73.20
4840;DHT22;2434;48.486;7.964;2023-05-02T05:08:15;11.30;73.80
4840;DHT22;2434;48.486;7.964;2023-05-02T05:10:46;11.30;74.10
4840;DHT22;2434;48.486;7.964;2023-05-02T05:13:14;11.30;74.90
4840;DHT22;2434;48.486;7.964;2023-05-02T05:15:46;11.30;75.10
4840;DHT22;2434;48.486;7.964;2023-05-02T05:18:16;11.20;75.60
4840;DHT22;2434;48.486;7.964;2023-05-02T05:20:44;11.20;75.80
4840;DHT22;2434;48.486;7.964;2023-05-02T05:23:13;11.10;76.90
4840;DHT22;2434;48.486;7.964;2023-05-02T05:25:41;11.10;76.40
4840;DHT22;2434;48.486;7.964;2023-05-02T05:28:14;11.10;76.90
4840;DHT22;2434;48.486;7.964;2023-05-02T05:30:44;11.10;77.50
4840;DHT22;2434;48.486;7.964;2023-05-02T05:33:17;11.10;77.40
4840;DHT22;2434;48.486;7.964;2023-05-02T05:35:45;11.10;78.10
4840;DHT22;2434;48.486;7.964;2023-05-02T05:38:14;11.20;79.00
4840;DHT22;2434;48.486;7.964;2023-05-02T05:40:44;11.20;79.10
4840;DHT22;2434;48.486;7.964;2023-05-02T05:43:17;11.20;78.50
4840;DHT22;2434;48.486;7.964;2023-05-02T05:45:45;11.20;77.90
4840;DHT22;2434;48.486;7.964;2023-05-02T05:48:14;11.20;78.70
4840;DHT22;2434;48.486;7.964;2023-05-02T05:50:44;11.20;80.90
4840;DHT22;2434;48.486;7.964;2023-05-02T05:53:13;11.30;78.70
4840;DHT22;2434;48.486;7.964;2023-05-02T05:55:43;11.40;78.40
4840;DHT22;2434;48.486;7.964;2023-05-02T05:58:12;11.20;81.70
4840;DHT22;2434;48.486;7.964;2023-05-02T06:00:43;11.10;83.70
4840;DHT22;2434;48.486;7.964;2023-05-02T06:03:11;11.20;82.60
4840;DHT22;2434;48.486;7.964;2023-05-02T06:05:41;11.30;79.80
4840;DHT22;2434;48.486;7.964;2023-05-02T06:08:09;11.40;78.50
4840;DHT22;2434;48.486;7.964;2023-05-02T06:10:37;11.40;80.80
4840;DHT22;2434;48.486;7.964;2023-05-02T06:13:06;11.40;81.90
4840;DHT22;2434;48.486;7.964;2023-05-02T06:15:39;11.50;79.70
4840;DHT22;2434;48.486;7.964;2023-05-02T06:18:08;11.50;81.80
4840;DHT22;2434;48.486;7.964;2023-05-02T06:20:37;11.40;82.50
4840;DHT22;2434;48.486;7.964;2023-05-02T06:23:05;11.40;84.60
4840;DHT22;2434;48.486;7.964;2023-05-02T06:25:36;11.40;83.50
4840;DHT22;2434;48.486;7.964;2023-05-02T06:28:05;11.50;82.20
4840;DHT22;2434;48.486;7.964;2023-05-02T06:30:33;11.50;81.90
4840;DHT22;2434;48.486;7.964;2023-05-02T06:33:03;11.50;81.00
4840;DHT22;2434;48.486;7.964;2023-05-02T06:35:33;11.60;79.30
4840;DHT22;2434;48.486;7.964;2023-05-02T06:38:01;11.70;78.70
4840;DHT22;2434;48.486;7.964;2023-05-02T06:40:29;11.80;78.10
4840;DHT22;2434;48.486;7.964;2023-05-02T06:42:57;11.80;77.00
4840;DHT22;2434;48.486;7.964;2023-05-02T06:45:26;12.00;77.40
4840;DHT22;2434;48.486;7.964;2023-05-02T06:47:54;11.80;75.50
4840;DHT22;2434;48.486;7.964;2023-05-02T06:50:22;11.80;75.60
4840;DHT22;2434;48.486;7.964;2023-05-02T06:52:52;11.80;76.20
4840;DHT22;2434;48.486;7.964;2023-05-02T06:55:21;11.80;76.70
4840;DHT22;2434;48.486;7.964;2023-05-02T06:57:49;11.70;76.30
4840;DHT22;2434;48.486;7.964;2023-05-02T07:00:18;11.70;76.70
4840;DHT22;2434;48.486;7.964;2023-05-02T07:02:47;11.80;77.50
4840;DHT22;2434;48.486;7.964;2023-05-02T07:05:16;11.90;78.10
4840;DHT22;2434;48.486;7.964;2023-05-02T07:07:44;11.80;78.10
4840;DHT22;2434;48.486;7.964;2023-05-02T07:10:14;11.90;78.40
4840;DHT22;2434;48.486;7.964;2023-05-02T07:12:42;12.00;76.90
4840;DHT22;2434;48.486;7.964;2023-05-02T07:15:10;12.00;76.90
4840;DHT22;2434;48.486;7.964;2023-05-02T07:17:39;11.90;76.90
4840;DHT22;2434;48.486;7.964;2023-05-02T07:20:09;12.00;77.50
4840;DHT22;2434;48.486;7.964;2023-05-02T07:22:38;12.00;79.30
4840;DHT22;2434;48.486;7.964;2023-05-02T07:25:06;12.10;79.20
4840;DHT22;2434;48.486;7.964;2023-05-02T07:27:36;12.10;79.60
4840;DHT22;2434;48.486;7.964;2023-05-02T07:30:05;12.10;77.30
4840;DHT22;2434;48.486;7.964;2023-05-02T07:32:33;12.00;76.20
4840;DHT22;2434;48.486;7.964;2023-05-02T07:35:02;12.10;76.50
4840;DHT22;2434;48.486;7.964;2023-05-02T07:37:32;12.10;77.00
4840;DHT22;2434;48.486;7.964;2023-05-02T07:40:01;12.10;76.00
4840;DHT22;2434;48.486;7.964;2023-05-02T07:42:30;12.10;75.60
4840;DHT22;2434;48.486;7.964;2023-05-02T07:45:00;12.10;76.40
4840;DHT22;2434;48.486;7.964;2023-05-02T07:47:28;12.10;77.60
4840;DHT22;2434;48.486;7.964;2023-05-02T07:49:56;12.10;76.70
4840;DHT22;2434;48.486;7.964;2023-05-02T07:52:25;12.30;76.80
4840;DHT22;2434;48.486;7.964;2023-05-02T07:54:53;12.30;78.40
4840;DHT22;2434;48.486;7.964;2023-05-02T07:57:22;12.40;78.20
4840;DHT22;2434;48.486;7.964;2023-05-02T07:59:51;12.40;78.20
4840;DHT22;2434;48.486;7.964;2023-05-02T08:02:20;12.40;78.20
4840;DHT22;2434;48.486;7.964;2023-05-02T08:04:49;12.40;77.60
4840;DHT22;2434;48.486;7.964;2023-05-02T08:07:18;12.40;77.50
4840;DHT22;2434;48.486;7.964;2023-05-02T08:09:47;12.40;76.80
4840;DHT22;2434;48.486;7.964;2023-05-02T08:12:15;12.40;74.60
4840;DHT22;2434;48.486;7.964;2023-05-02T08:14:43;12.50;74.70
4840;DHT22;2434;48.486;7.964;2023-05-02T08:17:11;12.60;77.00
4840;DHT22;2434;48.486;7.964;2023-05-02T08:19:41;12.70;77.10
4840;DHT22;2434;48.486;7.964;2023-05-02T08:22:09;12.70;74.70
4840;DHT22;2434;48.486;7.964;2023-05-02T08:24:37;12.80;76.20
4840;DHT22;2434;48.486;7.964;2023-05-02T08:27:05;12.90;74.40
4840;DHT22;2434;48.486;7.964;2023-05-02T08:29:34;12.80;73.30
4840;DHT22;2434;48.486;7.964;2023-05-02T08:32:02;12.90;75.20
4840;DHT22;2434;48.486;7.964;2023-05-02T08:34:30;12.80;73.50
4840;DHT22;2434;48.486;7.964;2023-05-02T08:37:01;12.80;73.50
4840;DHT22;2434;48.486;7.964;2023-05-02T08:39:32;12.80;74.00
4840;DHT22;2434;48.486;7.964;2023-05-02T08:42:00;13.00;74.10
4840;DHT22;2434;48.486;7.964;2023-05-02T08:44:29;13.10;73.90
4840;DHT22;2434;48.486;7.964;2023-05-02T08:46:59;13.10;74.90
4840;DHT22;2434;48.486;7.964;2023-05-02T08:49:28;13.10;76.00
4840;DHT22;2434;48.486;7.964;2023-05-02T08:51:58;13.20;74.80
4840;DHT22;2434;48.486;7.964;2023-05-02T08:54:29;13.20;72.80
4840;DHT22;2434;48.486;7.964;2023-05-02T08:56:58;13.30;71.80
4840;DHT22;2434;48.486;7.964;2023-05-02T08:59:29;13.30;73.00
4840;DHT22;2434;48.486;7.964;2023-05-02T09:02:07;13.40;71.20
4840;DHT22;2434;48.486;7.964;2023-05-02T09:04:40;13.40;71.30
4840;DHT22;2434;48.486;7.964;2023-05-02T09:07:09;13.40;71.50
4840;DHT22;2434;48.486;7.964;2023-05-02T09:09:39;13.40;72.30
4840;DHT22;2434;48.486;7.964;2023-05-02T09:12:07;13.60;71.20
4840;DHT22;2434;48.486;7.964;2023-05-02T09:14:36;13.70;74.00
4840;DHT22;2434;48.486;7.964;2023-05-02T09:17:04;13.80;72.00
4840;DHT22;2434;48.486;7.964;2023-05-02T09:19:32;13.70;68.90
4840;DHT22;2434;48.486;7.964;2023-05-02T09:22:01;13.70;69.50
4840;DHT22;2434;48.486;7.964;2023-05-02T09:24:29;13.70;68.30
4840;DHT22;2434;48.486;7.964;2023-05-02T09:27:00;13.80;68.80
4840;DHT22;2434;48.486;7.964;2023-05-02T09:29:30;13.80;66.90
4840;DHT22;2434;48.486;7.964;2023-05-02T09:32:02;13.90;68.20
4840;DHT22;2434;48.486;7.964;2023-05-02T09:34:32;14.00;70.10
4840;DHT22;2434;48.486;7.964;2023-05-02T09:37:00;14.10;69.10
4840;DHT22;2434;48.486;7.964;2023-05-02T09:39:31;14.10;66.40
4840;DHT22;2434;48.486;7.964;2023-05-02T09:42:00;14.20;67.40
4840;DHT22;2434;48.486;7.964;2023-05-02T09:44:36;14.20;66.60
4840;DHT22;2434;48.486;7.964;2023-05-02T09:47:04;14.20;64.50
4840;DHT22;2434;48.486;7.964;2023-05-02T09:49:44;14.20;65.00
4840;DHT22;2434;48.486;7.964;2023-05-02T09:52:14;14.30;66.50
4840;DHT22;2434;48.486;7.964;2023-05-02T09:54:42;14.30;63.50
4840;DHT22;2434;48.486;7.964;2023-05-02T09:57:14;14.40;65.60
4840;DHT22;2434;48.486;7.964;2023-05-02T09:59:52;14.40;63.00
4840;DHT22;2434;48.486;7.964;2023-05-02T10:02:21;14.40;62.20
4840;DHT22;2434;48.486;7.964;2023-05-02T10:04:49;14.40;62.00
4840;DHT22;2434;48.486;7.964;2023-05-02T10:07:18;14.50;63.10
4840;DHT22;2434;48.486;7.964;2023-05-02T10:09:48;14.50;63.90
4840;DHT22;2434;48.486;7.964;2023-05-02T10:12:20;14.60;61.10
4840;DHT22;2434;48.486;7.964;2023-05-02T10:14:59;14.60;62.60
4840;DHT22;2434;48.486;7.964;2023-05-02T10:17:30;14.60;60.80
4840;DHT22;2434;48.486;7.964;2023-05-02T10:20:03;14.70;64.10
4840;DHT22;2434;48.486;7.964;2023-05-02T10:22:33;14.90;58.60
4840;DHT22;2434;48.486;7.964;2023-05-02T10:25:02;14.90;58.40
4840;DHT22;2434;48.486;7.964;2023-05-02T10:27:32;14.80;60.70
4840;DHT22;2434;48.486;7.964;2023-05-02T10:30:00;15.10;64.30
4840;DHT22;2434;48.486;7.964;2023-05-02T10:32:32;15.20;62.60
4840;DHT22;2434;48.486;7.964;2023-05-02T10:35:03;15.30;59.50
4840;DHT22;2434;48.486;7.964;2023-05-02T10:37:33;15.30;56.50
4840;DHT22;2434;48.486;7.964;2023-05-02T10:40:02;15.40;63.60
4840;DHT22;2434;48.486;7.964;2023-05-02T10:42:34;15.50;56.80
4840;DHT22;2434;48.486;7.964;2023-05-02T10:45:06;15.50;56.90
4840;DHT22;2434;48.486;7.964;2023-05-02T10:47:37;15.50;57.40
4840;DHT22;2434;48.486;7.964;2023-05-02T10:50:06;15.50;56.30
4840;DHT22;2434;48.486;7.964;2023-05-02T10:52:36;15.50;58.10
4840;DHT22;2434;48.486;7.964;2023-05-02T10:55:16;15.30;56.80
4840;DHT22;2434;48.486;7.964;2023-05-02T10:58:21;15.50;58.30
4840;DHT22;2434;48.486;7.964;2023-05-02T11:00:49;15.60;56.50
4840;DHT22;2434;48.486;7.964;2023-05-02T11:03:55;15.60;55.90
4840;DHT22;2434;48.486;7.964;2023-05-02T11:06:25;15.70;53.90
4840;DHT22;2434;48.486;7.964;2023-05-02T11:09:30;15.80;53.30
4840;DHT22;2434;48.486;7.964;2023-05-02T11:12:00;15.80;51.90
4840;DHT22;2434;48.486;7.964;2023-05-02T11:14:45;15.80;51.20
4840;DHT22;2434;48.486;7.964;2023-05-02T11:17:16;15.90;54.00
4840;DHT22;2434;48.486;7.964;2023-05-02T11:22:52;15.90;51.20
4840;DHT22;2434;48.486;7.964;2023-05-02T11:25:32;15.90;50.90
4840;DHT22;2434;48.486;7.964;2023-05-02T11:28:00;16.00;52.00
4840;DHT22;2434;48.486;7.964;2023-05-02T11:30:41;16.10;51.90
4840;DHT22;2434;48.486;7.964;2023-05-02T11:33:12;16.20;51.30
4840;DHT22;2434;48.486;7.964;2023-05-02T11:35:46;16.20;51.70
4840;DHT22;2434;48.486;7.964;2023-05-02T11:38:17;16.10;46.90
4840;DHT22;2434;48.486;7.964;2023-05-02T11:40:57;16.20;48.30
4840;DHT22;2434;48.486;7.964;2023-05-02T11:43:27;16.40;47.20
4840;DHT22;2434;48.486;7.964;2023-05-02T11:45:59;16.20;50.90
4840;DHT22;2434;48.486;7.964;2023-05-02T11:48:29;16.20;50.90
4840;DHT22;2434;48.486;7.964;2023-05-02T11:50:59;16.20;50.00
4840;DHT22;2434;48.486;7.964;2023-05-02T11:53:31;16.30;49.80
4840;DHT22;2434;48.486;7.964;2023-05-02T11:56:02;16.60;49.80
4840;DHT22;2434;48.486;7.964;2023-05-02T11:58:31;16.60;53.00
4840;DHT22;2434;48.486;7.964;2023-05-02T12:01:12;16.70;48.20
4840;DHT22;2434;48.486;7.964;2023-05-02T12:03:41;16.60;46.40
4840;DHT22;2434;48.486;7.964;2023-05-02T12:06:11;16.60;46.80
4840;DHT22;2434;48.486;7.964;2023-05-02T12:08:43;16.70;49.10
4840;DHT22;2434;48.486;7.964;2023-05-02T12:11:12;16.70;49.10
4840;DHT22;2434;48.486;7.964;2023-05-02T12:13:44;16.80;47.00
4840;DHT22;2434;48.486;7.964;2023-05-02T12:16:16;16.80;43.60
4840;DHT22;2434;48.486;7.964;2023-05-02T12:18:44;16.60;40.10
4840;DHT22;2434;48.486;7.964;2023-05-02T12:21:13;16.70;42.40
4840;DHT22;2434;48.486;7.964;2023-05-02T12:23:42;16.90;44.20
4840;DHT22;2434;48.486;7.964;2023-05-02T12:26:18;17.00;43.20
4840;DHT22;2434;48.486;7.964;2023-05-02T12:28:48;17.00;43.50
4840;DHT22;2434;48.486;7.964;2023-05-02T12:31:18;17.00;44.10
4840;DHT22;2434;48.486;7.964;2023-05-02T12:33:47;17.00;44.50
4840;DHT22;2434;48.486;7.964;2023-05-02T12:36:17;17.10;44.20
4840;DHT22;2434;48.486;7.964;2023-05-02T12:38:48;17.20;46.30
4840;DHT22;2434;48.486;7.964;2023-05-02T12:41:30;17.30;43.60
4840;DHT22;2434;48.486;7.964;2023-05-02T12:43:59;17.20;41.80
4840;DHT22;2434;48.486;7.964;2023-05-02T12:46:29;17.20;41.90
4840;DHT22;2434;48.486;7.964;2023-05-02T12:49:01;17.20;42.30
4840;DHT22;2434;48.486;7.964;2023-05-02T12:51:31;17.30;43.90
4840;DHT22;2434;48.486;7.964;2023-05-02T12:54:00;17.40;41.10
4840;DHT22;2434;48.486;7.964;2023-05-02T12:56:29;17.50;43.30
4840;DHT22;2434;48.486;7.964;2023-05-02T12:58:59;17.50;40.20
4840;DHT22;2434;48.486;7.964;2023-05-02T13:01:33;17.50;42.90
4840;DHT22;2434;48.486;7.964;2023-05-02T13:04:01;17.50;42.90
4840;DHT22;2434;48.486;7.964;2023-05-02T13:06:31;17.50;43.80
4840;DHT22;2434;48.486;7.964;2023-05-02T13:08:59;17.70;42.90
4840;DHT22;2434;48.486;7.964;2023-05-02T13:11:27;17.60;42.70
4840;DHT22;2434;48.486;7.964;2023-05-02T13:13:55;17.70;41.10
4840;DHT22;2434;48.486;7.964;2023-05-02T13:16:26;17.70;41.40
4840;DHT22;2434;48.486;7.964;2023-05-02T13:18:57;17.50;40.70
4840;DHT22;2434;48.486;7.964;2023-05-02T13:21:26;17.50;45.20
4840;DHT22;2434;48.486;7.964;2023-05-02T13:23:54;17.60;44.70
4840;DHT22;2434;48.486;7.964;2023-05-02T13:26:24;17.40;43.70
4840;DHT22;2434;48.486;7.964;2023-05-02T13:28:52;17.20;42.70
4840;DHT22;2434;48.486;7.964;2023-05-02T13:31:22;17.00;49.00
4840;DHT22;2434;48.486;7.964;2023-05-02T13:33:50;16.50;50.60
4840;DHT22;2434;48.486;7.964;2023-05-02T13:36:20;16.40;54.20
4840;DHT22;2434;48.486;7.964;2023-05-02T13:38:50;16.30;54.40
4840;DHT22;2434;48.486;7.964;2023-05-02T13:41:18;16.20;53.00
4840;DHT22;2434;48.486;7.964;2023-05-02T13:43:47;16.10;54.80
4840;DHT22;2434;48.486;7.964;2023-05-02T13:46:15;16.00;53.80
4840;DHT22;2434;48.486;7.964;2023-05-02T13:48:44;16.00;54.70
4840;DHT22;2434;48.486;7.964;2023-05-02T13:51:12;16.00;54.50
4840;DHT22;2434;48.486;7.964;2023-05-02T13:53:41;16.00;53.40
4840;DHT22;2434;48.486;7.964;2023-05-02T13:56:10;16.00;52.30
4840;DHT22;2434;48.486;7.964;2023-05-02T13:58:38;16.00;49.90
4840;DHT22;2434;48.486;7.964;2023-05-02T14:01:06;16.10;51.50
4840;DHT22;2434;48.486;7.964;2023-05-02T14:03:34;16.10;51.30
4840;DHT22;2434;48.486;7.964;2023-05-02T14:06:03;16.20;49.80
4840;DHT22;2434;48.486;7.964;2023-05-02T14:08:31;16.30;51.20
4840;DHT22;2434;48.486;7.964;2023-05-02T14:11:01;16.40;48.60
4840;DHT22;2434;48.486;7.964;2023-05-02T14:13:32;16.30;49.70
4840;DHT22;2434;48.486;7.964;2023-05-02T14:16:01;16.30;47.80
4840;DHT22;2434;48.486;7.964;2023-05-02T14:18:29;16.30;51.90
4840;DHT22;2434;48.486;7.964;2023-05-02T14:20:57;16.30;50.10
4840;DHT22;2434;48.486;7.964;2023-05-02T14:23:26;16.30;50.10
4840;DHT22;2434;48.486;7.964;2023-05-02T14:25:55;16.20;49.70
4840;DHT22;2434;48.486;7.964;2023-05-02T14:28:25;16.20;49.10
4840;DHT22;2434;48.486;7.964;2023-05-02T14:30:53;16.20;50.20
4840;DHT22;2434;48.486;7.964;2023-05-02T14:33:22;16.20;47.80
4840;DHT22;2434;48.486;7.964;2023-05-02T14:35:50;16.20;51.30
4840;DHT22;2434;48.486;7.964;2023-05-02T14:38:18;16.20;48.70
4840;DHT22;2434;48.486;7.964;2023-05-02T14:40:47;16.20;48.70
4840;DHT22;2434;48.486;7.964;2023-05-02T14:43:15;16.10;47.70
4840;DHT22;2434;48.486;7.964;2023-05-02T14:45:45;16.00;45.30
4840;DHT22;2434;48.486;7.964;2023-05-02T14:48:14;16.00;46.10
4840;DHT22;2434;48.486;7.964;2023-05-02T14:50:43;16.10;44.90
4840;DHT22;2434;48.486;7.964;2023-05-02T14:53:11;16.00;45.80
4840;DHT22;2434;48.486;7.964;2023-05-02T14:55:40;16.00;46.70
4840;DHT22;2434;48.486;7.964;2023-05-02T14:58:08;16.00;43.60
4840;DHT22;2434;48.486;7.964;2023-05-02T15:00:37;15.90;44.10
4840;DHT22;2434;48.486;7.964;2023-05-02T15:03:07;15.90;46.20
4840;DHT22;2434;48.486;7.964;2023-05-02T15:05:36;16.00;47.10
4840;DHT22;2434;48.486;7.964;2023-05-02T15:08:05;16.00;44.70
4840;DHT22;2434;48.486;7.964;2023-05-02T15:10:37;16.00;45.20
4840;DHT22;2434;48.486;7.964;2023-05-02T15:13:05;15.90;41.80
4840;DHT22;2434;48.486;7.964;2023-05-02T15:15:34;15.90;43.10
4840;DHT22;2434;48.486;7.964;2023-05-02T15:18:03;15.80;40.30
4840;DHT22;2434;48.486;7.964;2023-05-02T15:20:33;15.80;42.30
4840;DHT22;2434;48.486;7.964;2023-05-02T15:23:01;15.90;41.80
4840;DHT22;2434;48.486;7.964;2023-05-02T15:25:30;16.00;43.20
4840;DHT22;2434;48.486;7.964;2023-05-02T15:27:58;16.10;40.40
4840;DHT22;2434;48.486;7.964;2023-05-02T15:30:28;16.30;40.80
4840;DHT22;2434;48.486;7.964;2023-05-02T15:32:56;16.40;42.30
4840;DHT22;2434;48.486;7.964;2023-05-02T15:35:24;16.40;40.80
4840;DHT22;2434;48.486;7.964;2023-05-02T15:37:54;16.50;41.70
4840;DHT22;2434;48.486;7.964;2023-05-02T15:40:22;16.60;41.40
4840;DHT22;2434;48.486;7.964;2023-05-02T15:42:51;16.70;39.70
4840;DHT22;2434;48.486;7.964;2023-05-02T15:45:20;16.80;40.90
4840;DHT22;2434;48.486;7.964;2023-05-02T15:47:48;16.90;41.90
4840;DHT22;2434;48.486;7.964;2023-05-02T15:50:17;17.00;40.70
4840;DHT22;2434;48.486;7.964;2023-05-02T15:52:45;17.10;39.70
4840;DHT22;2434;48.486;7.964;2023-05-02T15:55:15;17.20;40.10
4840;DHT22;2434;48.486;7.964;2023-05-02T15:57:43;17.10;41.20
4840;DHT22;2434;48.486;7.964;2023-05-02T16:00:12;17.10;42.60
4840;DHT22;2434;48.486;7.964;2023-05-02T16:02:42;17.10;39.60
4840;DHT22;2434;48.486;7.964;2023-05-02T16:05:11;17.00;39.50
4840;DHT22;2434;48.486;7.964;2023-05-02T16:07:39;17.00;40.40
4840;DHT22;2434;48.486;7.964;2023-05-02T16:10:08;17.10;40.50
4840;DHT22;2434;48.486;7.964;2023-05-02T16:12:38;17.00;39.90
4840;DHT22;2434;48.486;7.964;2023-05-02T16:15:07;17.00;38.20
4840;DHT22;2434;48.486;7.964;2023-05-02T16:17:35;17.00;37.20
4840;DHT22;2434;48.486;7.964;2023-05-02T16:20:04;17.10;38.30
4840;DHT22;2434;48.486;7.964;2023-05-02T16:22:33;17.30;37.30
4840;DHT22;2434;48.486;7.964;2023-05-02T16:25:01;17.20;37.00
4840;DHT22;2434;48.486;7.964;2023-05-02T16:27:29;17.20;38.60